sensor_id;sensor_type;location;lat;lon;timestamp;pressure;altitude;pressure_sealevel;temperature;humidity
76352;BME280;65179;47.786;19.138;2023-12-20T00:01:18;100526.22;;;-1.01;96.48
76352;BME280;65179;47.786;19.138;2023-12-20T00:03:43;100519.50;;;-1.05;96.91
76352;BME280;65179;47.786;19.138;2023-12-20T00:06:09;100516.13;;;-1.07;96.85
76352;BME280;65179;47.786;19.138;2023-12-20T00:08:34;100516.00;;;-1.15;97.21
76352;BME280;65179;47.786;19.138;2023-12-20T00:11:00;100508.44;;;-1.20;97.47
76352;BME280;65179;47.786;19.138;2023-12-20T00:13:25;100510.53;;;-1.14;97.15
76352;BME280;65179;47.786;19.138;2023-12-20T00:15:51;100511.22;;;-1.12;97.11
76352;BME280;65179;47.786;19.138;2023-12-20T00:18:16;100510.53;;;-1.14;97.04
76352;BME280;65179;47.786;19.138;2023-12-20T00:20:41;100506.03;;;-1.13;97.11
76352;BME280;65179;47.786;19.138;2023-12-20T00:23:07;100502.09;;;-1.09;97.07
76352;BME280;65179;47.786;19.138;2023-12-20T00:25:33;100496.78;;;-1.09;97.15
76352;BME280;65179;47.786;19.138;2023-12-20T00:27:59;100483.19;;;-1.06;97.27
76352;BME280;65179;47.786;19.138;2023-12-20T00:30:25;100484.44;;;-1.10;97.48
76352;BME280;65179;47.786;19.138;2023-12-20T00:32:50;100483.63;;;-1.20;97.48
76352;BME280;65179;47.786;19.138;2023-12-20T00:35:16;100473.38;;;-1.15;97.79
76352;BME280;65179;47.786;19.138;2023-12-20T00:37:43;100460.34;;;-1.18;97.24
76352;BME280;65179;47.786;19.138;2023-12-20T00:40:09;100458.22;;;-1.15;96.69
76352;BME280;65179;47.786;19.138;2023-12-20T00:42:35;100454.84;;;-1.17;97.05
76352;BME280;65179;47.786;19.138;2023-12-20T00:45:01;100455.53;;;-1.15;96.91
76352;BME280;65179;47.786;19.138;2023-12-20T00:47:27;100453.87;;;-1.16;97.13
76352;BME280;65179;47.786;19.138;2023-12-20T00:49:53;100455.59;;;-1.24;97.12
76352;BME280;65179;47.786;19.138;2023-12-20T00:52:18;100451.66;;;-1.20;97.14
76352;BME280;65179;47.786;19.138;2023-12-20T00:54:44;100450.22;;;-1.15;97.22
76352;BME280;65179;47.786;19.138;2023-12-20T00:57:10;100445.47;;;-1.11;97.24
76352;BME280;65179;47.786;19.138;2023-12-20T00:59:35;100443.75;;;-1.12;96.74
76352;BME280;65179;47.786;19.138;2023-12-20T01:02:01;100452.16;;;-1.07;96.80
76352;BME280;65179;47.786;19.138;2023-12-20T01:04:26;100442.91;;;-1.03;97.06
76352;BME280;65179;47.786;19.138;2023-12-20T01:06:52;100439.81;;;-1.08;96.78
76352;BME280;65179;47.786;19.138;2023-12-20T01:09:17;100446.31;;;-1.20;97.22
76352;BME280;65179;47.786;19.138;2023-12-20T01:11:43;100440.72;;;-1.17;96.69
76352;BME280;65179;47.786;19.138;2023-12-20T01:14:09;100434.38;;;-1.16;96.90
76352;BME280;65179;47.786;19.138;2023-12-20T01:16:34;100434.00;;;-1.21;96.53
76352;BME280;65179;47.786;19.138;2023-12-20T01:19:00;100422.75;;;-1.25;96.71
76352;BME280;65179;47.786;19.138;2023-12-20T01:21:25;100422.75;;;-1.25;96.99
76352;BME280;65179;47.786;19.138;2023-12-20T01:23:50;100413.81;;;-1.24;97.10
76352;BME280;65179;47.786;19.138;2023-12-20T01:26:16;100418.44;;;-1.26;97.09
76352;BME280;65179;47.786;19.138;2023-12-20T01:28:42;100417.59;;;-1.26;97.04
76352;BME280;65179;47.786;19.138;2023-12-20T01:31:08;100411.84;;;-1.31;96.81
76352;BME280;65179;47.786;19.138;2023-12-20T01:33:34;100415.78;;;-1.26;96.81
76352;BME280;65179;47.786;19.138;2023-12-20T01:35:59;100405.94;;;-1.25;97.02
76352;BME280;65179;47.786;19.138;2023-12-20T01:38:25;100406.25;;;-1.28;96.96
76352;BME280;65179;47.786;19.138;2023-12-20T01:40:50;100402.87;;;-1.30;96.55
76352;BME280;65179;47.786;19.138;2023-12-20T01:43:16;100392.94;;;-1.28;96.50
76352;BME280;65179;47.786;19.138;2023-12-20T01:45:41;100389.16;;;-1.35;97.05
76352;BME280;65179;47.786;19.138;2023-12-20T01:48:08;100376.94;;;-1.28;97.28
76352;BME280;65179;47.786;19.138;2023-12-20T01:50:36;100359.25;;;-1.29;96.64
76352;BME280;65179;47.786;19.138;2023-12-20T01:53:02;100364.50;;;-1.37;96.95
76352;BME280;65179;47.786;19.138;2023-12-20T01:55:31;100355.22;;;-1.33;97.74
76352;BME280;65179;47.786;19.138;2023-12-20T01:57:59;100350.47;;;-1.39;97.89
76352;BME280;65179;47.786;19.138;2023-12-20T02:00:26;100343.19;;;-1.37;97.34
76352;BME280;65179;47.786;19.138;2023-12-20T02:02:54;100333.66;;;-1.40;97.93
76352;BME280;65179;47.786;19.138;2023-12-20T02:05:21;100327.34;;;-1.39;97.56
76352;BME280;65179;47.786;19.138;2023-12-20T02:07:46;100325.22;;;-1.35;97.43
76352;BME280;65179;47.786;19.138;2023-12-20T02:10:12;100316.09;;;-1.33;97.48
76352;BME280;65179;47.786;19.138;2023-12-20T02:12:38;100319.66;;;-1.52;97.57
76352;BME280;65179;47.786;19.138;2023-12-20T02:15:04;100307.63;;;-1.56;97.69
76352;BME280;65179;47.786;19.138;2023-12-20T02:17:31;100299.78;;;-1.47;97.93
76352;BME280;65179;47.786;19.138;2023-12-20T02:19:56;100305.09;;;-1.47;97.92
76352;BME280;65179;47.786;19.138;2023-12-20T02:22:22;100294.44;;;-1.47;97.69
76352;BME280;65179;47.786;19.138;2023-12-20T02:24:47;100294.13;;;-1.44;97.49
76352;BME280;65179;47.786;19.138;2023-12-20T02:27:13;100287.41;;;-1.39;97.19
76352;BME280;65179;47.786;19.138;2023-12-20T02:29:39;100285.50;;;-1.56;97.89
76352;BME280;65179;47.786;19.138;2023-12-20T02:32:05;100288.59;;;-1.61;98.75
76352;BME280;65179;47.786;19.138;2023-12-20T02:34:30;100289.13;;;-1.47;98.17
76352;BME280;65179;47.786;19.138;2023-12-20T02:36:55;100285.19;;;-1.43;98.14
76352;BME280;65179;47.786;19.138;2023-12-20T02:39:21;100294.97;;;-1.34;98.16
76352;BME280;65179;47.786;19.138;2023-12-20T02:41:48;100297.16;;;-1.30;97.70
76352;BME280;65179;47.786;19.138;2023-12-20T02:44:13;100294.37;;;-1.28;97.30
76352;BME280;65179;47.786;19.138;2023-12-20T02:46:39;100298.16;;;-1.31;96.97
76352;BME280;65179;47.786;19.138;2023-12-20T02:49:05;100291.69;;;-1.28;97.00
76352;BME280;65179;47.786;19.138;2023-12-20T02:51:30;100284.69;;;-1.29;97.54
76352;BME280;65179;47.786;19.138;2023-12-20T02:53:56;100280.63;;;-1.33;97.81
76352;BME280;65179;47.786;19.138;2023-12-20T02:56:21;100280.63;;;-1.33;97.78
76352;BME280;65179;47.786;19.138;2023-12-20T02:58:47;100284.00;;;-1.31;97.97
76352;BME280;65179;47.786;19.138;2023-12-20T03:01:12;100280.03;;;-1.27;97.83
76352;BME280;65179;47.786;19.138;2023-12-20T03:03:37;100279.91;;;-1.26;97.52
76352;BME280;65179;47.786;19.138;2023-12-20T03:06:03;100284.84;;;-1.31;97.29
76352;BME280;65179;47.786;19.138;2023-12-20T03:08:28;100284.00;;;-1.31;97.17
76352;BME280;65179;47.786;19.138;2023-12-20T03:10:54;100285.69;;;-1.30;97.91
76352;BME280;65179;47.786;19.138;2023-12-20T03:13:19;100285.94;;;-1.24;98.06
76352;BME280;65179;47.786;19.138;2023-12-20T03:15:45;100288.16;;;-1.19;98.05
76352;BME280;65179;47.786;19.138;2023-12-20T03:18:11;100281.81;;;-1.18;97.55
76352;BME280;65179;47.786;19.138;2023-12-20T03:20:36;100273.91;;;-1.28;97.77
76352;BME280;65179;47.786;19.138;2023-12-20T03:23:03;100261.13;;;-1.24;97.75
76352;BME280;65179;47.786;19.138;2023-12-20T03:25:28;100263.38;;;-1.29;98.27
76352;BME280;65179;47.786;19.138;2023-12-20T03:27:54;100261.81;;;-1.22;98.47
76352;BME280;65179;47.786;19.138;2023-12-20T03:30:19;100264.19;;;-1.19;97.49
76352;BME280;65179;47.786;19.138;2023-12-20T03:32:45;100262.09;;;-1.25;97.50
76352;BME280;65179;47.786;19.138;2023-12-20T03:35:11;100265.75;;;-1.26;97.53
76352;BME280;65179;47.786;19.138;2023-12-20T03:37:36;100270.22;;;-1.27;97.02
76352;BME280;65179;47.786;19.138;2023-12-20T03:40:02;100268.41;;;-1.26;97.05
76352;BME280;65179;47.786;19.138;2023-12-20T03:42:28;100273.75;;;-1.26;97.69
76352;BME280;65179;47.786;19.138;2023-12-20T03:44:53;100276.41;;;-1.26;97.56
76352;BME280;65179;47.786;19.138;2023-12-20T03:47:19;100264.37;;;-1.30;97.21
76352;BME280;65179;47.786;19.138;2023-12-20T03:49:44;100258.72;;;-1.27;97.81
76352;BME280;65179;47.786;19.138;2023-12-20T03:52:10;100264.47;;;-1.22;97.95
76352;BME280;65179;47.786;19.138;2023-12-20T03:54:35;100268.66;;;-1.20;97.87
76352;BME280;65179;47.786;19.138;2023-12-20T03:57:01;100257.75;;;-1.26;97.80
76352;BME280;65179;47.786;19.138;2023-12-20T03:59:26;100256.75;;;-1.25;96.94
76352;BME280;65179;47.786;19.138;2023-12-20T04:01:52;100246.09;;;-1.25;97.29
76352;BME280;65179;47.786;19.138;2023-12-20T04:04:17;100249.16;;;-1.20;97.70
76352;BME280;65179;47.786;19.138;2023-12-20T04:06:43;100241.47;;;-1.23;97.51
76352;BME280;65179;47.786;19.138;2023-12-20T04:09:08;100238.34;;;-1.19;97.55
76352;BME280;65179;47.786;19.138;2023-12-20T04:11:37;100236.53;;;-1.18;97.27
76352;BME280;65179;47.786;19.138;2023-12-20T04:14:02;100237.41;;;-1.27;98.03
76352;BME280;65179;47.786;19.138;2023-12-20T04:16:30;100228.75;;;-1.29;98.32
76352;BME280;65179;47.786;19.138;2023-12-20T04:18:55;100224.47;;;-1.40;98.33
76352;BME280;65179;47.786;19.138;2023-12-20T04:21:20;100209.34;;;-1.49;98.61
76352;BME280;65179;47.786;19.138;2023-12-20T04:23:46;100208.38;;;-1.48;98.65
76352;BME280;65179;47.786;19.138;2023-12-20T04:26:11;100202.22;;;-1.48;98.53
76352;BME280;65179;47.786;19.138;2023-12-20T04:28:37;100192.81;;;-1.43;98.47
76352;BME280;65179;47.786;19.138;2023-12-20T04:31:02;100186.25;;;-1.48;98.46
76352;BME280;65179;47.786;19.138;2023-12-20T04:33:27;100200.50;;;-1.40;97.86
76352;BME280;65179;47.786;19.138;2023-12-20T04:35:53;100203.84;;;-1.38;98.09
76352;BME280;65179;47.786;19.138;2023-12-20T04:38:18;100206.94;;;-1.42;98.01
76352;BME280;65179;47.786;19.138;2023-12-20T04:40:44;100189.16;;;-1.42;98.07
76352;BME280;65179;47.786;19.138;2023-12-20T04:43:09;100176.97;;;-1.44;98.34
76352;BME280;65179;47.786;19.138;2023-12-20T04:45:35;100169.06;;;-1.36;98.41
76352;BME280;65179;47.786;19.138;2023-12-20T04:48:01;100179.63;;;-1.44;98.73
76352;BME280;65179;47.786;19.138;2023-12-20T04:50:27;100183.66;;;-1.40;98.54
76352;BME280;65179;47.786;19.138;2023-12-20T04:52:52;100179.41;;;-1.33;98.47
76352;BME280;65179;47.786;19.138;2023-12-20T04:55:18;100170.75;;;-1.35;98.15
76352;BME280;65179;47.786;19.138;2023-12-20T04:57:43;100154.47;;;-1.32;98.24
76352;BME280;65179;47.786;19.138;2023-12-20T05:00:09;100154.75;;;-1.35;98.19
76352;BME280;65179;47.786;19.138;2023-12-20T05:02:35;100144.75;;;-1.51;98.93
76352;BME280;65179;47.786;19.138;2023-12-20T05:05:01;100148.28;;;-1.50;99.48
76352;BME280;65179;47.786;19.138;2023-12-20T05:07:26;100139.59;;;-1.52;99.70
76352;BME280;65179;47.786;19.138;2023-12-20T05:09:51;100136.72;;;-1.41;99.73
76352;BME280;65179;47.786;19.138;2023-12-20T05:12:17;100131.69;;;-1.44;99.35
76352;BME280;65179;47.786;19.138;2023-12-20T05:14:42;100121.59;;;-1.41;98.79
76352;BME280;65179;47.786;19.138;2023-12-20T05:17:08;100127.59;;;-1.39;99.11
76352;BME280;65179;47.786;19.138;2023-12-20T05:19:33;100144.41;;;-1.38;98.78
76352;BME280;65179;47.786;19.138;2023-12-20T05:22:01;100129.72;;;-1.42;99.23
76352;BME280;65179;47.786;19.138;2023-12-20T05:24:27;100120.31;;;-1.37;99.18
76352;BME280;65179;47.786;19.138;2023-12-20T05:26:52;100127.84;;;-1.32;98.44
76352;BME280;65179;47.786;19.138;2023-12-20T05:29:18;100116.97;;;-1.39;98.70
76352;BME280;65179;47.786;19.138;2023-12-20T05:31:43;100128.41;;;-1.38;99.22
76352;BME280;65179;47.786;19.138;2023-12-20T05:34:08;100116.13;;;-1.39;99.15
76352;BME280;65179;47.786;19.138;2023-12-20T05:36:34;100132.94;;;-1.39;98.99
76352;BME280;65179;47.786;19.138;2023-12-20T05:39:00;100133.50;;;-1.45;99.03
76352;BME280;65179;47.786;19.138;2023-12-20T05:41:25;100134.22;;;-1.43;98.76
76352;BME280;65179;47.786;19.138;2023-12-20T05:43:50;100145.00;;;-1.44;99.01
76352;BME280;65179;47.786;19.138;2023-12-20T05:46:16;100137.41;;;-1.39;98.92
76352;BME280;65179;47.786;19.138;2023-12-20T05:48:41;100136.13;;;-1.35;98.96
76352;BME280;65179;47.786;19.138;2023-12-20T05:51:07;100128.81;;;-1.33;98.94
76352;BME280;65179;47.786;19.138;2023-12-20T05:53:33;100125.88;;;-1.30;98.90
76352;BME280;65179;47.786;19.138;2023-12-20T05:55:58;100125.47;;;-1.35;98.65
76352;BME280;65179;47.786;19.138;2023-12-20T05:58:24;100129.81;;;-1.34;98.75
76352;BME280;65179;47.786;19.138;2023-12-20T06:00:50;100126.59;;;-1.38;98.80
76352;BME280;65179;47.786;19.138;2023-12-20T06:03:15;100135.72;;;-1.40;98.98
76352;BME280;65179;47.786;19.138;2023-12-20T06:05:41;100134.97;;;-1.50;99.28
76352;BME280;65179;47.786;19.138;2023-12-20T06:08:06;100134.97;;;-1.50;99.17
76352;BME280;65179;47.786;19.138;2023-12-20T06:10:32;100131.16;;;-1.48;98.88
76352;BME280;65179;47.786;19.138;2023-12-20T06:12:57;100122.72;;;-1.43;98.61
76352;BME280;65179;47.786;19.138;2023-12-20T06:15:24;100132.69;;;-1.45;98.76
76352;BME280;65179;47.786;19.138;2023-12-20T06:17:49;100132.69;;;-1.45;99.13
76352;BME280;65179;47.786;19.138;2023-12-20T06:20:15;100121.03;;;-1.44;98.89
76352;BME280;65179;47.786;19.138;2023-12-20T06:22:40;100127.38;;;-1.45;99.52
76352;BME280;65179;47.786;19.138;2023-12-20T06:25:06;100137.41;;;-1.39;99.09
76352;BME280;65179;47.786;19.138;2023-12-20T06:27:32;100136.81;;;-1.33;98.92
76352;BME280;65179;47.786;19.138;2023-12-20T06:29:58;100140.38;;;-1.42;99.02
76352;BME280;65179;47.786;19.138;2023-12-20T06:32:24;100140.25;;;-1.41;99.21
76352;BME280;65179;47.786;19.138;2023-12-20T06:34:49;100145.69;;;-1.42;99.14
76352;BME280;65179;47.786;19.138;2023-12-20T06:37:15;100145.56;;;-1.41;98.80
76352;BME280;65179;47.786;19.138;2023-12-20T06:39:41;100140.81;;;-1.47;98.94
76352;BME280;65179;47.786;19.138;2023-12-20T06:42:06;100142.78;;;-1.49;99.07
76352;BME280;65179;47.786;19.138;2023-12-20T06:44:32;100143.88;;;-1.42;99.09
76352;BME280;65179;47.786;19.138;2023-12-20T06:46:57;100149.59;;;-1.37;98.87
76352;BME280;65179;47.786;19.138;2023-12-20T06:49:23;100137.94;;;-1.36;98.95
76352;BME280;65179;47.786;19.138;2023-12-20T06:51:48;100148.47;;;-1.34;98.81
76352;BME280;65179;47.786;19.138;2023-12-20T06:54:14;100150.13;;;-1.33;98.86
76352;BME280;65179;47.786;19.138;2023-12-20T06:56:39;100153.69;;;-1.42;98.74
76352;BME280;65179;47.786;19.138;2023-12-20T06:59:06;100157.03;;;-1.40;98.70
76352;BME280;65179;47.786;19.138;2023-12-20T07:01:31;100151.03;;;-1.42;98.77
76352;BME280;65179;47.786;19.138;2023-12-20T07:03:57;100152.37;;;-1.38;98.67
76352;BME280;65179;47.786;19.138;2023-12-20T07:06:22;100155.06;;;-1.38;98.61
76352;BME280;65179;47.786;19.138;2023-12-20T07:08:48;100149.03;;;-1.40;98.49
76352;BME280;65179;47.786;19.138;2023-12-20T07:11:13;100131.00;;;-1.46;98.21
76352;BME280;65179;47.786;19.138;2023-12-20T07:13:39;100150.97;;;-1.78;98.63
76352;BME280;65179;47.786;19.138;2023-12-20T07:16:04;100153.91;;;-1.81;100.00
76352;BME280;65179;47.786;19.138;2023-12-20T07:18:30;100165.91;;;-1.77;100.00
76352;BME280;65179;47.786;19.138;2023-12-20T07:20:55;100152.22;;;-1.82;100.00
76352;BME280;65179;47.786;19.138;2023-12-20T07:23:21;100159.03;;;-1.70;100.00
76352;BME280;65179;47.786;19.138;2023-12-20T07:25:46;100151.28;;;-1.63;99.67
76352;BME280;65179;47.786;19.138;2023-12-20T07:28:12;100156.31;;;-1.60;99.12
76352;BME280;65179;47.786;19.138;2023-12-20T07:30:37;100165.22;;;-1.52;99.28
76352;BME280;65179;47.786;19.138;2023-12-20T07:33:03;100172.16;;;-1.59;99.67
76352;BME280;65179;47.786;19.138;2023-12-20T07:35:29;100164.59;;;-1.63;99.96
76352;BME280;65179;47.786;19.138;2023-12-20T07:37:54;100167.78;;;-1.60;100.00
76352;BME280;65179;47.786;19.138;2023-12-20T07:40:20;100169.34;;;-1.57;99.76
76352;BME280;65179;47.786;19.138;2023-12-20T07:42:45;100169.03;;;-1.54;99.84
76352;BME280;65179;47.786;19.138;2023-12-20T07:45:10;100163.53;;;-1.43;100.00
76352;BME280;65179;47.786;19.138;2023-12-20T07:47:37;100156.75;;;-1.37;99.77
76352;BME280;65179;47.786;19.138;2023-12-20T07:50:02;100150.41;;;-1.36;99.42
76352;BME280;65179;47.786;19.138;2023-12-20T07:52:29;100148.91;;;-1.39;99.27
76352;BME280;65179;47.786;19.138;2023-12-20T07:54:54;100141.66;;;-1.46;98.95
76352;BME280;65179;47.786;19.138;2023-12-20T07:57:20;100136.09;;;-1.53;99.19
76352;BME280;65179;47.786;19.138;2023-12-20T07:59:46;100146.97;;;-1.46;99.24
76352;BME280;65179;47.786;19.138;2023-12-20T08:02:11;100139.41;;;-1.41;99.00
76352;BME280;65179;47.786;19.138;2023-12-20T08:04:36;100141.06;;;-1.40;98.63
76352;BME280;65179;47.786;19.138;2023-12-20T08:07:03;100138.78;;;-1.35;98.87
76352;BME280;65179;47.786;19.138;2023-12-20T08:09:29;100127.16;;;-1.34;98.84
76352;BME280;65179;47.786;19.138;2023-12-20T08:11:54;100134.53;;;-1.28;98.91
76352;BME280;65179;47.786;19.138;2023-12-20T08:14:20;100135.22;;;-1.26;98.80
76352;BME280;65179;47.786;19.138;2023-12-20T08:16:45;100137.81;;;-1.34;98.62
76352;BME280;65179;47.786;19.138;2023-12-20T08:19:11;100148.00;;;-1.30;98.77
76352;BME280;65179;47.786;19.138;2023-12-20T08:21:36;100138.78;;;-1.35;98.81
76352;BME280;65179;47.786;19.138;2023-12-20T08:24:02;100128.81;;;-1.33;98.64
76352;BME280;65179;47.786;19.138;2023-12-20T08:26:28;100130.50;;;-1.32;98.55
76352;BME280;65179;47.786;19.138;2023-12-20T08:28:53;100133.47;;;-1.35;98.43
76352;BME280;65179;47.786;19.138;2023-12-20T08:31:19;100131.69;;;-1.44;98.65
76352;BME280;65179;47.786;19.138;2023-12-20T08:33:47;100146.38;;;-1.40;98.91
76352;BME280;65179;47.786;19.138;2023-12-20T08:36:13;100147.19;;;-1.30;98.44
76352;BME280;65179;47.786;19.138;2023-12-20T08:38:38;100138.78;;;-1.35;98.11
76352;BME280;65179;47.786;19.138;2023-12-20T08:41:04;100131.47;;;-1.33;98.08
76352;BME280;65179;47.786;19.138;2023-12-20T08:43:34;100140.47;;;-1.34;97.97
76352;BME280;65179;47.786;19.138;2023-12-20T08:46:00;100138.50;;;-1.32;98.04
76352;BME280;65179;47.786;19.138;2023-12-20T08:48:26;100141.25;;;-1.24;98.00
76352;BME280;65179;47.786;19.138;2023-12-20T08:50:51;100161.78;;;-1.34;97.84
76352;BME280;65179;47.786;19.138;2023-12-20T08:53:18;100159.25;;;-1.36;97.85
76352;BME280;65179;47.786;19.138;2023-12-20T08:55:44;100156.28;;;-1.33;97.77
76352;BME280;65179;47.786;19.138;2023-12-20T08:58:09;100155.00;;;-1.29;97.98
76352;BME280;65179;47.786;19.138;2023-12-20T09:00:35;100150.53;;;-1.28;97.79
76352;BME280;65179;47.786;19.138;2023-12-20T09:03:01;100153.88;;;-1.26;97.55
76352;BME280;65179;47.786;19.138;2023-12-20T09:05:27;100151.66;;;-1.31;97.32
76352;BME280;65179;47.786;19.138;2023-12-20T09:07:53;100150.59;;;-1.20;97.23
76352;BME280;65179;47.786;19.138;2023-12-20T09:10:18;100140.00;;;-1.30;97.26
76352;BME280;65179;47.786;19.138;2023-12-20T09:12:53;100140.34;;;-1.15;96.85
76352;BME280;65179;47.786;19.138;2023-12-20T09:15:26;100142.78;;;-1.04;96.55
76352;BME280;65179;47.786;19.138;2023-12-20T09:17:52;100130.88;;;-0.92;96.37
76352;BME280;65179;47.786;19.138;2023-12-20T09:20:19;100143.47;;;-0.85;96.19
76352;BME280;65179;47.786;19.138;2023-12-20T09:22:44;100134.97;;;-0.80;95.46
76352;BME280;65179;47.786;19.138;2023-12-20T09:25:10;100131.56;;;-0.72;95.30
76352;BME280;65179;47.786;19.138;2023-12-20T09:27:36;100125.31;;;-0.63;95.22
76352;BME280;65179;47.786;19.138;2023-12-20T09:30:02;100111.72;;;-0.52;94.59
76352;BME280;65179;47.786;19.138;2023-12-20T09:32:28;100098.47;;;-0.62;94.39
76352;BME280;65179;47.786;19.138;2023-12-20T09:34:54;100110.03;;;-0.53;94.41
76352;BME280;65179;47.786;19.138;2023-12-20T09:37:20;100104.87;;;-0.55;94.58
76352;BME280;65179;47.786;19.138;2023-12-20T09:39:45;100093.25;;;-0.46;94.42
76352;BME280;65179;47.786;19.138;2023-12-20T09:42:12;100101.56;;;-0.49;93.95
76352;BME280;65179;47.786;19.138;2023-12-20T09:44:40;100110.34;;;-0.31;94.14
76352;BME280;65179;47.786;19.138;2023-12-20T09:47:07;100091.44;;;-0.12;93.53
76352;BME280;65179;47.786;19.138;2023-12-20T09:49:33;100109.72;;;0.09;93.39
76352;BME280;65179;47.786;19.138;2023-12-20T09:52:00;100083.78;;;0.27;93.21
76352;BME280;65179;47.786;19.138;2023-12-20T09:54:27;100074.81;;;0.03;92.49
76352;BME280;65179;47.786;19.138;2023-12-20T09:56:54;100070.34;;;0.11;93.14
76352;BME280;65179;47.786;19.138;2023-12-20T09:59:19;100067.06;;;0.17;92.75
76352;BME280;65179;47.786;19.138;2023-12-20T10:01:45;100055.50;;;0.09;92.92
76352;BME280;65179;47.786;19.138;2023-12-20T10:04:12;100064.03;;;0.12;93.17
76352;BME280;65179;47.786;19.138;2023-12-20T10:06:39;100062.47;;;0.43;92.82
76352;BME280;65179;47.786;19.138;2023-12-20T10:09:05;100068.84;;;0.83;90.62
76352;BME280;65179;47.786;19.138;2023-12-20T10:11:31;100064.69;;;0.80;89.71
76352;BME280;65179;47.786;19.138;2023-12-20T10:14:00;100057.34;;;1.38;89.19
76352;BME280;65179;47.786;19.138;2023-12-20T10:16:28;100038.62;;;1.22;89.22
76352;BME280;65179;47.786;19.138;2023-12-20T10:18:54;100030.25;;;1.33;89.08
76352;BME280;65179;47.786;19.138;2023-12-20T10:21:21;100031.75;;;1.28;89.09
76352;BME280;65179;47.786;19.138;2023-12-20T10:23:47;100023.41;;;1.07;89.28
76352;BME280;65179;47.786;19.138;2023-12-20T10:26:22;100012.88;;;1.29;88.76
76352;BME280;65179;47.786;19.138;2023-12-20T10:28:53;100015.28;;;2.02;87.20
76352;BME280;65179;47.786;19.138;2023-12-20T10:31:34;100012.31;;;2.81;84.68
76352;BME280;65179;47.786;19.138;2023-12-20T10:34:01;99997.78;;;3.27;81.17
76352;BME280;65179;47.786;19.138;2023-12-20T10:36:29;99993.09;;;3.73;80.74
76352;BME280;65179;47.786;19.138;2023-12-20T10:38:57;99985.59;;;3.83;79.55
76352;BME280;65179;47.786;19.138;2023-12-20T10:41:27;99975.78;;;2.35;82.62
76352;BME280;65179;47.786;19.138;2023-12-20T10:44:01;99976.16;;;2.32;85.60
76352;BME280;65179;47.786;19.138;2023-12-20T10:46:29;99973.25;;;1.80;86.25
76352;BME280;65179;47.786;19.138;2023-12-20T10:48:56;99971.31;;;1.49;87.89
76352;BME280;65179;47.786;19.138;2023-12-20T10:51:23;99965.94;;;1.66;87.65
76352;BME280;65179;47.786;19.138;2023-12-20T10:53:50;99958.88;;;1.73;87.93
76352;BME280;65179;47.786;19.138;2023-12-20T10:56:19;99961.47;;;1.89;86.59
76352;BME280;65179;47.786;19.138;2023-12-20T10:58:46;99978.06;;;1.37;87.99
76352;BME280;65179;47.786;19.138;2023-12-20T11:01:14;99972.03;;;1.43;88.15
76352;BME280;65179;47.786;19.138;2023-12-20T11:03:44;99961.31;;;1.51;88.38
76352;BME280;65179;47.786;19.138;2023-12-20T11:06:40;99939.16;;;1.27;88.96
76352;BME280;65179;47.786;19.138;2023-12-20T11:09:24;99927.56;;;1.34;89.39
76352;BME280;65179;47.786;19.138;2023-12-20T11:17:11;99931.66;;;1.06;89.70
76352;BME280;65179;47.786;19.138;2023-12-20T11:22:17;99926.13;;;1.16;90.93
76352;BME280;65179;47.786;19.138;2023-12-20T11:24:44;99924.69;;;0.97;91.49
76352;BME280;65179;47.786;19.138;2023-12-20T11:27:13;99905.44;;;1.10;91.15
76352;BME280;65179;47.786;19.138;2023-12-20T11:29:38;99908.59;;;1.60;91.48
76352;BME280;65179;47.786;19.138;2023-12-20T11:34:51;99912.41;;;1.66;89.19
76352;BME280;65179;47.786;19.138;2023-12-20T11:37:19;99907.53;;;1.38;89.76
76352;BME280;65179;47.786;19.138;2023-12-20T11:39:44;99908.38;;;1.31;89.99
76352;BME280;65179;47.786;19.138;2023-12-20T11:42:10;99912.25;;;1.20;91.08
76352;BME280;65179;47.786;19.138;2023-12-20T11:44:37;99914.59;;;1.15;91.83
76352;BME280;65179;47.786;19.138;2023-12-20T11:47:03;99923.50;;;0.92;92.87
76352;BME280;65179;47.786;19.138;2023-12-20T11:49:28;99915.44;;;1.16;92.32
76352;BME280;65179;47.786;19.138;2023-12-20T11:51:56;99915.13;;;1.49;90.94
76352;BME280;65179;47.786;19.138;2023-12-20T11:54:22;99914.19;;;1.34;91.63
76352;BME280;65179;47.786;19.138;2023-12-20T11:56:47;99928.03;;;1.46;91.79
76352;BME280;65179;47.786;19.138;2023-12-20T11:59:13;99916.87;;;1.42;91.31
76352;BME280;65179;47.786;19.138;2023-12-20T12:01:38;99903.88;;;1.31;91.45
76352;BME280;65179;47.786;19.138;2023-12-20T12:04:05;99904.16;;;1.44;91.75
76352;BME280;65179;47.786;19.138;2023-12-20T12:06:30;99904.28;;;1.51;92.02
76352;BME280;65179;47.786;19.138;2023-12-20T12:08:56;99887.06;;;1.45;91.34
76352;BME280;65179;47.786;19.138;2023-12-20T12:11:22;99882.19;;;1.18;93.52
76352;BME280;65179;47.786;19.138;2023-12-20T12:13:48;99899.00;;;1.35;93.41
76352;BME280;65179;47.786;19.138;2023-12-20T12:16:19;99883.09;;;1.41;93.59
76352;BME280;65179;47.786;19.138;2023-12-20T12:18:45;99872.34;;;1.49;93.06
76352;BME280;65179;47.786;19.138;2023-12-20T12:21:18;99885.47;;;1.36;94.12
76352;BME280;65179;47.786;19.138;2023-12-20T12:23:44;99886.41;;;1.43;94.54
76352;BME280;65179;47.786;19.138;2023-12-20T12:26:09;99873.16;;;1.58;93.55
76352;BME280;65179;47.786;19.138;2023-12-20T12:28:35;99881.97;;;1.67;93.32
76352;BME280;65179;47.786;19.138;2023-12-20T12:31:00;99880.75;;;1.69;92.37
76352;BME280;65179;47.786;19.138;2023-12-20T12:33:26;99876.63;;;1.67;93.58
76352;BME280;65179;47.786;19.138;2023-12-20T12:35:52;99881.72;;;1.76;92.84
76352;BME280;65179;47.786;19.138;2023-12-20T12:38:21;99874.66;;;1.83;92.42
76352;BME280;65179;47.786;19.138;2023-12-20T12:40:46;99873.66;;;1.84;93.61
76352;BME280;65179;47.786;19.138;2023-12-20T12:43:12;99867.59;;;1.90;93.37
76352;BME280;65179;47.786;19.138;2023-12-20T12:45:38;99863.56;;;1.94;93.85
76352;BME280;65179;47.786;19.138;2023-12-20T12:48:04;99862.31;;;2.05;94.72